Time;durP1;ratioP1;P1;durP2;ratioP2;P2;SDS_P1;SDS_P2;PMS_P1;PMS_P2;Temp;Humidity;BMP_temperature;BMP_pressure;BME280_temperature;BME280_humidity;BME280_pressure;Samples;Min_cycle;Max_cycle;Signal;HPM_P1;HPM_P2
2023/04/17 00:00:53;;;;;;;;;3.50;3.00;;;;;12.54;46.61;101771.75;5079537;28;45738;-84
2023/04/17 00:03:18;;;;;;;;;3.00;3.00;;;;;12.50;46.85;101767.63;5076123;28;47561;-86
2023/04/17 00:05:45;;;;;;;;;4.00;3.00;;;;;12.48;46.99;101768.66;5077210;28;45609;-85
2023/04/17 00:08:10;;;;;;;;;4.50;3.00;;;;;12.46;47.28;101765.28;5076431;28;45705;-87
2023/04/17 00:13:58;;;;;;;;;6.25;3.50;;;;;12.39;47.28;101766.59;5075382;28;45533;-80
2023/04/17 00:16:25;;;;;;;;;4.00;2.50;;;;;12.35;47.55;101759.84;5075667;28;45573;-87
2023/04/17 00:18:51;;;;;;;;;4.00;3.00;;;;;12.35;47.64;101755.44;5075088;28;45667;-78
2023/04/17 00:21:17;;;;;;;;;3.50;3.00;;;;;12.30;47.33;101749.59;5076507;28;45690;-84
2023/04/17 00:23:42;;;;;;;;;6.00;3.75;;;;;12.30;47.74;101738.25;5076692;28;45660;-84
2023/04/17 00:29:31;;;;;;;;;3.50;3.50;;;;;12.29;48.08;101736.53;5075174;28;45802;-80
2023/04/17 00:31:57;;;;;;;;;5.25;3.75;;;;;12.29;48.10;101737.41;5077876;28;45661;-86
2023/04/17 00:34:23;;;;;;;;;5.00;3.00;;;;;12.29;48.03;101740.03;5076790;28;45714;-83
2023/04/17 00:36:48;;;;;;;;;3.75;3.00;;;;;12.30;48.40;101739.09;5074507;28;45577;-80
2023/04/17 00:39:14;;;;;;;;;4.25;4.00;;;;;12.29;48.11;101745.28;5079453;28;45773;-81
2023/04/17 00:41:39;;;;;;;;;4.00;4.00;;;;;12.29;48.26;101744.44;5078121;28;45554;-79
2023/04/17 00:44:05;;;;;;;;;2.75;2.75;;;;;12.26;48.38;101731.47;5075599;28;46911;-82
2023/04/17 00:46:31;;;;;;;;;7.00;4.00;;;;;12.22;48.63;101732.59;5074348;28;45962;-84
2023/04/17 00:48:57;;;;;;;;;3.00;3.00;;;;;12.21;48.81;101731.75;5074736;28;45815;-84
2023/04/17 00:51:22;;;;;;;;;4.00;4.00;;;;;12.14;48.57;101727.81;5074232;28;45783;-81
2023/04/17 00:53:48;;;;;;;;;4.50;3.50;;;;;12.11;48.81;101728.81;5074855;28;45502;-79
2023/04/17 00:59:37;;;;;;;;;4.00;4.00;;;;;12.03;49.34;101720.56;5072401;27;45666;-79
2023/04/17 01:02:03;;;;;;;;;7.50;6.75;;;;;12.01;49.52;101719.81;5075057;28;45666;-83
2023/04/17 01:04:28;;;;;;;;;7.00;6.50;;;;;11.97;49.58;101717.44;5056970;28;47480;-81
2023/04/17 01:06:54;;;;;;;;;6.50;6.50;;;;;11.95;49.93;101714.06;5074518;28;45678;-82
2023/04/17 01:09:20;;;;;;;;;7.25;6.00;;;;;11.92;50.13;101714.25;5076939;28;45630;-83
2023/04/17 01:15:07;;;;;;;;;4.00;4.00;;;;;11.90;50.31;101713.50;5075326;28;46309;-79
2023/04/17 01:17:33;;;;;;;;;4.50;4.50;;;;;11.89;50.38;101717.03;5077608;28;45608;-79
2023/04/17 01:19:58;;;;;;;;;6.00;5.00;;;;;11.87;50.39;101711.06;5076409;28;45620;-78
2023/04/17 01:22:23;;;;;;;;;4.50;4.00;;;;;11.83;50.39;101707.75;5077490;28;45772;-80
2023/04/17 01:24:49;;;;;;;;;6.00;6.00;;;;;11.85;50.48;101713.75;5078361;28;45559;-79
2023/04/17 01:27:14;;;;;;;;;7.25;5.00;;;;;11.80;50.54;101704.47;5076844;28;45675;-80
2023/04/17 01:29:41;;;;;;;;;9.75;7.00;;;;;11.74;50.66;101701.25;5076837;28;45494;-81
2023/04/17 01:32:06;;;;;;;;;7.50;6.25;;;;;11.76;50.89;101707.28;5074104;28;45644;-79
2023/04/17 01:34:32;;;;;;;;;7.50;5.50;;;;;11.78;50.78;101701.91;5073800;28;46663;-83
2023/04/17 01:36:57;;;;;;;;;6.25;6.25;;;;;11.76;50.91;101698.56;5073579;28;45762;-83
2023/04/17 01:39:23;;;;;;;;;4.50;4.50;;;;;11.75;50.93;101710.84;5073867;28;45704;-83
2023/04/17 01:45:10;;;;;;;;;6.50;6.00;;;;;11.71;51.00;101705.81;5076317;28;46217;-78
2023/04/17 01:47:36;;;;;;;;;6.25;6.25;;;;;11.71;51.09;101713.69;5074831;28;46381;-85
2023/04/17 01:50:02;;;;;;;;;6.00;6.00;;;;;11.70;50.82;101706.75;5076858;28;45641;-81
2023/04/17 01:52:28;;;;;;;;;7.00;6.00;;;;;11.68;51.24;101716.47;5076964;28;45608;-79
2023/04/17 01:54:53;;;;;;;;;6.75;6.00;;;;;11.63;51.33;101711.50;5077220;28;45673;-80
2023/04/17 01:57:19;;;;;;;;;6.75;5.50;;;;;11.55;51.45;101713.72;5075688;28;46496;-83
2023/04/17 01:59:44;;;;;;;;;6.00;6.00;;;;;11.47;51.55;101705.44;5076022;28;45764;-83
2023/04/17 02:02:09;;;;;;;;;5.00;4.50;;;;;11.41;51.79;101712.81;5078065;28;45743;-80
2023/04/17 02:04:35;;;;;;;;;4.00;4.00;;;;;11.39;52.04;101720.75;5078608;28;45941;-79
2023/04/17 02:07:00;;;;;;;;;7.00;6.00;;;;;11.36;52.11;101711.31;5077827;28;45828;-78
2023/04/17 02:09:25;;;;;;;;;8.00;7.00;;;;;11.39;52.00;101718.13;5076397;28;45762;-81
2023/04/17 02:15:12;;;;;;;;;7.75;6.25;;;;;11.36;52.07;101713.94;5075860;28;46254;-79
2023/04/17 02:17:38;;;;;;;;;7.50;6.00;;;;;11.31;52.11;101713.34;5073962;28;47499;-81
2023/04/17 02:20:06;;;;;;;;;7.75;7.00;;;;;11.31;52.27;101715.13;5076156;28;45709;-83
2023/04/17 02:22:31;;;;;;;;;7.00;7.00;;;;;11.27;52.34;101709.22;5075898;28;45978;-79
2023/04/17 02:24:57;;;;;;;;;5.75;5.75;;;;;11.27;52.43;101708.38;5076419;28;45699;-85
2023/04/17 02:30:44;;;;;;;;;7.25;6.50;;;;;11.23;52.65;101706.81;5078180;28;45872;-80
2023/04/17 02:33:10;;;;;;;;;7.50;7.00;;;;;11.19;52.59;101697.44;5082245;28;45691;-80
2023/04/17 02:35:36;;;;;;;;;7.25;7.00;;;;;11.18;52.89;101703.59;5081719;28;46696;-83
2023/04/17 02:38:01;;;;;;;;;7.00;7.00;;;;;11.13;52.87;101706.50;5078138;28;45967;-83
2023/04/17 02:40:27;;;;;;;;;7.25;7.25;;;;;11.13;53.10;101705.66;5077600;28;45620;-88
2023/04/17 02:42:52;;;;;;;;;7.00;7.00;;;;;11.10;53.38;101698.81;5077422;28;45743;-85
2023/04/17 02:45:18;;;;;;;;;5.00;4.00;;;;;11.08;52.96;101700.66;5077244;28;45604;-84
2023/04/17 02:47:43;;;;;;;;;9.50;7.00;;;;;11.09;53.54;101697.13;5079270;28;45620;-84
2023/04/17 02:50:09;;;;;;;;;8.50;7.50;;;;;11.09;53.45;101702.34;5079879;28;45524;-84
2023/04/17 02:52:35;;;;;;;;;7.75;7.25;;;;;11.07;53.56;101701.59;5077900;28;45934;-86
2023/04/17 02:55:00;;;;;;;;;8.00;7.00;;;;;11.05;53.85;101700.84;5078063;28;45831;-87
2023/04/17 03:00:47;;;;;;;;;7.75;7.75;;;;;11.03;54.16;101700.06;5073705;28;45967;-89
2023/04/17 03:03:13;;;;;;;;;8.00;7.00;;;;;11.02;54.16;101695.75;5075451;28;45542;-83
2023/04/17 03:05:38;;;;;;;;;8.00;8.00;;;;;11.04;54.41;101693.06;5073861;28;46813;-87
2023/04/17 03:08:04;;;;;;;;;11.00;9.00;;;;;11.00;54.35;101695.00;5075923;28;46127;-85
2023/04/17 03:10:29;;;;;;;;;10.50;10.25;;;;;11.00;54.60;101694.16;5077145;28;45596;-81
2023/04/17 03:16:16;;;;;;;;;11.00;8.75;;;;;10.94;55.09;101700.59;5076560;28;45755;-86
2023/04/17 03:18:41;;;;;;;;;12.00;11.00;;;;;10.90;55.06;101694.66;5075274;28;45627;-80
2023/04/17 03:21:07;;;;;;;;;12.50;11.50;;;;;10.86;55.13;101690.50;5075190;28;45988;-83
2023/04/17 03:23:33;;;;;;;;;9.75;8.00;;;;;10.84;55.28;101687.16;5077972;28;45537;-84
2023/04/17 03:25:59;;;;;;;;;13.50;11.25;;;;;10.82;55.24;101694.25;5081601;28;45734;-76
2023/04/17 03:28:25;;;;;;;;;10.00;8.00;;;;;10.83;55.34;101693.31;5078900;28;46367;-76
2023/04/17 03:30:50;;;;;;;;;11.50;9.25;;;;;10.82;55.15;101685.53;5076252;28;45595;-77
2023/04/17 03:33:16;;;;;;;;;12.50;9.75;;;;;10.82;55.04;101689.00;5077666;28;45923;-84
2023/04/17 03:35:43;;;;;;;;;8.25;8.25;;;;;10.80;55.18;101688.22;5076052;28;48044;-82
2023/04/17 03:38:09;;;;;;;;;11.00;9.00;;;;;10.78;54.98;101687.47;5078374;28;46099;-77
2023/04/17 03:40:35;;;;;;;;;12.50;10.50;;;;;10.73;55.02;101691.28;5080333;28;45624;-81
2023/04/17 03:46:22;;;;;;;;;9.00;8.00;;;;;10.71;55.17;101693.13;5075478;28;46297;-80
2023/04/17 03:48:47;;;;;;;;;8.00;7.25;;;;;10.69;55.40;101697.63;5075028;28;45719;-84
2023/04/17 03:51:14;;;;;;;;;12.00;9.75;;;;;10.69;55.18;101703.69;5076717;28;45691;-84
2023/04/17 03:53:40;;;;;;;;;10.25;8.00;;;;;10.70;55.16;101692.28;5075169;28;45919;-78
2023/04/17 03:56:05;;;;;;;;;10.25;8.00;;;;;10.69;55.33;101705.50;5074539;28;46337;-78
2023/04/17 04:01:53;;;;;;;;;10.00;10.00;;;;;10.64;55.54;101718.81;5071387;28;45995;-79
2023/04/17 04:04:18;;;;;;;;;12.00;11.00;;;;;10.63;55.76;101711.06;5072112;28;46027;-83
2023/04/17 04:06:46;;;;;;;;;12.50;7.25;;;;;10.61;55.82;101715.53;5073610;28;45835;-84
2023/04/17 04:09:11;;;;;;;;;10.25;8.00;;;;;10.58;55.82;101711.28;5074141;28;46086;-82
2023/04/17 04:11:37;;;;;;;;;11.25;10.00;;;;;10.59;55.81;101715.59;5078315;28;45719;-83
2023/04/17 04:14:02;;;;;;;;;12.50;11.00;;;;;10.57;56.09;101712.22;5080406;28;45835;-81
2023/04/17 04:16:27;;;;;;;;;12.25;11.00;;;;;10.52;56.10;101707.25;5077206;28;45626;-79
2023/04/17 04:18:53;;;;;;;;;14.75;11.50;;;;;10.56;56.23;101709.69;5077450;28;45657;-83
2023/04/17 04:21:18;;;;;;;;;11.00;10.00;;;;;10.56;56.27;101718.38;5077641;28;45687;-85
2023/04/17 04:23:44;;;;;;;;;12.25;9.75;;;;;10.51;56.24;101702.91;5081534;28;45869;-83
2023/04/17 04:26:10;;;;;;;;;16.00;14.75;;;;;10.52;56.22;101706.38;5079819;28;46784;-81
2023/04/17 04:31:58;;;;;;;;;15.25;12.50;;;;;10.52;56.63;101714.25;5078777;28;45755;-86
2023/04/17 04:34:24;;;;;;;;;14.75;12.25;;;;;10.53;56.83;101713.28;5079232;28;45664;-82
2023/04/17 04:36:53;;;;;;;;;20.00;13.75;;;;;10.53;56.94;101713.28;5080734;28;46394;-84
2023/04/17 04:39:19;;;;;;;;;12.00;11.75;;;;;10.52;57.20;101722.09;5077261;28;45960;-82
2023/04/17 04:48:13;;;;;;;;;15.25;13.00;;;;;10.46;58.07;101718.03;5072782;28;46189;-82
2023/04/17 04:50:39;;;;;;;;;21.50;18.25;;;;;10.46;57.92;101725.91;5072883;28;45806;-84
2023/04/17 04:53:04;;;;;;;;;20.00;15.25;;;;;10.48;58.15;101731.88;5072863;28;45662;-87
2023/04/17 04:55:29;;;;;;;;;20.00;16.00;;;;;10.46;58.33;101725.91;5073497;28;45684;-87
2023/04/17 04:57:56;;;;;;;;;22.25;17.50;;;;;10.48;58.52;101720.56;5073323;28;46699;-85
2023/04/17 05:00:22;;;;;;;;;16.25;14.75;;;;;10.47;58.41;101721.50;5073293;28;45834;-87
2023/04/17 05:02:48;;;;;;;;;22.00;19.75;;;;;10.52;58.70;101732.59;5073013;28;45670;-79
2023/04/17 05:05:13;;;;;;;;;19.50;16.25;;;;;10.47;58.66;101724.13;5073999;28;45709;-83
2023/04/17 05:07:38;;;;;;;;;23.75;17.00;;;;;10.49;58.68;101732.72;5075105;28;46459;-83
2023/04/17 05:10:05;;;;;;;;;21.25;18.25;;;;;10.49;58.74;101730.97;5075126;28;45571;-85
2023/04/17 05:12:31;;;;;;;;;16.25;15.75;;;;;10.51;58.59;101730.88;5075012;28;45644;-83
2023/04/17 05:14:57;;;;;;;;;21.50;16.75;;;;;10.49;58.75;101719.63;5075393;28;45874;-81
2023/04/17 05:17:22;;;;;;;;;22.00;19.25;;;;;10.49;59.09;101722.25;5076431;28;48096;-79
2023/04/17 05:19:47;;;;;;;;;20.00;18.00;;;;;10.49;59.12;101733.59;5079459;28;45814;-82
2023/04/17 05:22:13;;;;;;;;;22.75;18.00;;;;;10.49;59.06;101730.97;5080179;28;45666;-85
2023/04/17 05:24:38;;;;;;;;;21.50;19.25;;;;;10.53;59.18;101742.13;5078627;28;45639;-79
2023/04/17 05:27:04;;;;;;;;;21.75;20.00;;;;;10.52;59.19;101732.59;5078612;28;46293;-83
2023/04/17 05:32:52;;;;;;;;;22.25;17.00;;;;;10.48;59.18;101733.66;5077968;28;45894;-79
2023/04/17 05:35:18;;;;;;;;;25.75;20.25;;;;;10.53;59.45;101745.59;5078159;28;45845;-77
2023/04/17 05:37:43;;;;;;;;;21.75;17.25;;;;;10.52;59.48;101737.81;5075853;28;45636;-78
2023/04/17 05:40:09;;;;;;;;;22.00;18.75;;;;;10.50;59.41;101743.13;5075417;28;45671;-74
2023/04/17 05:42:34;;;;;;;;;23.00;21.00;;;;;10.52;59.40;101741.31;5075278;28;45604;-75
2023/04/17 05:44:59;;;;;;;;;20.00;18.00;;;;;10.53;59.37;101737.72;5075653;28;45831;-79
2023/04/17 05:47:25;;;;;;;;;24.75;21.50;;;;;10.52;59.64;101737.81;5075071;28;46388;-76
2023/04/17 05:49:56;;;;;;;;;21.50;20.00;;;;;10.53;59.79;101739.50;5075408;28;46089;-76
2023/04/17 05:52:21;;;;;;;;;26.75;24.50;;;;;10.53;59.92;101736.88;5076042;28;46038;-77
2023/04/17 05:54:47;;;;;;;;;19.25;16.75;;;;;10.51;59.81;101736.97;5076906;28;45771;-77
2023/04/17 05:57:12;;;;;;;;;31.25;24.75;;;;;10.56;59.91;101735.88;5074195;28;46553;-79
2023/04/17 06:03:03;;;;;;;;;26.00;22.00;;;;;10.53;60.33;101732.47;5072988;28;45744;-78
2023/04/17 06:05:28;;;;;;;;;31.00;23.25;;;;;10.56;60.25;101734.13;5074204;28;45677;-78
2023/04/17 06:07:53;;;;;;;;;25.50;21.75;;;;;10.60;60.61;101737.41;5076153;28;46501;-78
2023/04/17 06:10:19;;;;;;;;;22.00;19.75;;;;;10.65;60.47;101740.63;5075457;28;45778;-77
2023/04/17 06:12:44;;;;;;;;;35.25;27.25;;;;;10.68;60.74;101736.09;5074856;28;45674;-75
2023/04/17 06:18:31;;;;;;;;;29.75;26.75;;;;;10.76;60.65;101747.00;5074561;28;45586;-74
2023/04/17 06:20:57;;;;;;;;;32.75;27.50;;;;;10.78;60.81;101744.31;5074900;28;45681;-75
2023/04/17 06:23:22;;;;;;;;;33.75;23.50;;;;;10.78;60.73;101746.91;5074692;28;45588;-76
2023/04/17 06:25:48;;;;;;;;;24.25;23.00;;;;;10.77;60.71;101746.06;5075034;28;45777;-76
2023/04/17 06:28:13;;;;;;;;;23.00;22.50;;;;;10.77;60.78;101748.69;5073788;28;46292;-76
2023/04/17 06:30:38;;;;;;;;;36.00;24.25;;;;;10.80;60.97;101748.50;5074515;28;45699;-76
2023/04/17 06:33:04;;;;;;;;;29.00;24.50;;;;;10.83;60.85;101750.13;5074511;28;45793;-76
2023/04/17 06:35:29;;;;;;;;;27.00;22.75;;;;;10.81;60.99;101754.59;5074554;28;45608;-76
2023/04/17 06:37:55;;;;;;;;;32.25;27.25;;;;;10.82;61.09;101751.91;5074387;28;46253;-77
2023/04/17 06:40:20;;;;;;;;;27.25;24.75;;;;;10.81;61.28;101752.84;5074444;28;45927;-77
2023/04/17 06:42:45;;;;;;;;;28.25;27.25;;;;;10.80;61.39;101752.91;5074482;28;45577;-75
2023/04/17 06:48:32;;;;;;;;;31.50;25.75;;;;;10.77;61.42;101759.19;5074305;28;46214;-75
2023/04/17 06:50:58;;;;;;;;;30.75;26.25;;;;;10.79;61.68;101764.34;5074611;28;45641;-78
2023/04/17 06:53:23;;;;;;;;;31.75;28.25;;;;;10.77;61.71;101766.19;5073997;28;45664;-77
2023/04/17 06:55:49;;;;;;;;;29.25;25.75;;;;;10.76;61.49;101757.47;5075019;28;45644;-76
2023/04/17 06:58:14;;;;;;;;;34.25;28.75;;;;;10.78;61.67;101760.03;5073918;28;45888;-77
2023/04/17 07:04:02;;;;;;;;;25.25;19.75;;;;;10.76;62.06;101775.81;5070528;27;45853;-75
2023/04/17 07:06:28;;;;;;;;;37.50;27.00;;;;;10.77;61.91;101774.91;5074843;28;45829;-77
2023/04/17 07:08:53;;;;;;;;;32.25;28.25;;;;;10.76;62.27;101773.22;5074879;28;45696;-75
2023/04/17 07:11:19;;;;;;;;;34.75;28.75;;;;;10.74;62.43;101777.66;5074685;28;45688;-77
2023/04/17 07:13:44;;;;;;;;;41.25;28.75;;;;;10.75;62.27;101776.75;5074567;28;45648;-76
2023/04/17 07:16:10;;;;;;;;;31.25;28.00;;;;;10.77;62.53;101780.16;5074134;28;45659;-75
2023/04/17 07:18:36;;;;;;;;;32.75;30.00;;;;;10.79;62.56;101782.69;5074415;28;45623;-77
2023/04/17 07:21:01;;;;;;;;;28.00;26.75;;;;;10.79;62.57;101775.69;5074227;28;45669;-74
2023/04/17 07:23:27;;;;;;;;;37.00;32.50;;;;;10.87;62.38;101783.13;5074580;28;45556;-76
2023/04/17 07:25:52;;;;;;;;;31.75;26.00;;;;;10.86;62.75;101787.50;5075345;28;45577;-76
2023/04/17 07:28:17;;;;;;;;;36.00;29.50;;;;;10.87;62.49;101785.75;5076026;28;47576;-76
2023/04/17 07:34:05;;;;;;;;;41.75;29.50;;;;;10.82;62.78;101798.25;5079700;28;45970;-75
2023/04/17 07:36:30;;;;;;;;;32.00;26.75;;;;;10.80;62.66;101798.31;5076727;28;45881;-75
2023/04/17 07:38:56;;;;;;;;;39.25;30.00;;;;;10.83;62.87;101803.41;5072641;28;45613;-75
2023/04/17 07:41:21;;;;;;;;;29.00;24.00;;;;;10.81;62.95;101801.78;5073222;28;45768;-74
2023/04/17 07:43:46;;;;;;;;;35.00;31.75;;;;;10.79;62.99;101804.53;5073679;28;46294;-77
2023/04/17 07:49:34;;;;;;;;;33.25;28.00;;;;;10.73;63.27;101803.97;5073031;28;45856;-73
2023/04/17 07:51:59;;;;;;;;;39.00;32.00;;;;;10.72;63.25;101800.50;5073215;28;45660;-75
2023/04/17 07:54:25;;;;;;;;;33.25;28.75;;;;;10.74;63.40;101803.06;5073361;28;45927;-74
2023/04/17 07:56:51;;;;;;;;;31.50;27.50;;;;;10.77;63.27;101792.41;5071668;28;45826;-76
2023/04/17 07:59:17;;;;;;;;;32.25;28.50;;;;;10.79;63.42;101801.03;5073308;28;46274;-74
2023/04/17 08:01:42;;;;;;;;;37.50;32.00;;;;;10.79;63.34;101794.03;5073015;28;45682;-74
2023/04/17 08:04:08;;;;;;;;;35.75;32.00;;;;;10.86;63.44;101802.38;5073058;28;45570;-75
2023/04/17 08:06:33;;;;;;;;;35.50;32.00;;;;;10.90;63.26;101801.31;5073154;28;45720;-74
2023/04/17 08:09:01;;;;;;;;;36.25;31.50;;;;;10.90;63.43;101798.69;5073229;28;46950;-73
2023/04/17 08:11:26;;;;;;;;;36.25;28.50;;;;;10.99;63.36;101805.22;5072906;28;46392;-75
2023/04/17 08:13:53;;;;;;;;;33.50;30.00;;;;;11.01;63.36;101806.00;5071496;28;45748;-73
2023/04/17 08:19:40;;;;;;;;;34.75;29.75;;;;;11.04;63.41;101803.19;5072714;28;45795;-76
2023/04/17 08:22:06;;;;;;;;;37.00;32.75;;;;;11.06;63.52;101804.81;5072780;28;46082;-76
2023/04/17 08:24:32;;;;;;;;;38.50;32.75;;;;;11.07;63.50;101806.47;5073174;28;45899;-77
2023/04/17 08:26:57;;;;;;;;;38.75;35.75;;;;;11.07;63.18;101803.00;5073043;28;45698;-76
2023/04/17 08:29:23;;;;;;;;;49.25;35.25;;;;;11.14;63.48;101815.72;5072889;28;45690;-75
2023/04/17 08:35:13;;;;;;;;;37.50;31.50;;;;;11.22;63.53;101812.69;5072630;28;45959;-76
2023/04/17 08:37:39;;;;;;;;;39.75;35.75;;;;;11.26;63.56;101807.19;5072632;28;45727;-76
2023/04/17 08:40:09;;;;;;;;;40.75;30.00;;;;;11.27;63.58;101806.28;5072754;28;45674;-77
2023/04/17 08:42:36;;;;;;;;;34.00;31.75;;;;;11.25;63.41;101802.88;5072720;28;46135;-78
2023/04/17 08:45:10;;;;;;;;;42.25;35.75;;;;;11.33;63.52;101811.19;5072535;28;45663;-75
2023/04/17 08:47:39;;;;;;;;;34.25;31.50;;;;;11.35;63.42;101804.06;5072485;28;45695;-77
2023/04/17 08:50:09;;;;;;;;;36.50;34.00;;;;;11.42;63.29;101803.72;5088822;27;47934;-78
2023/04/17 08:52:45;;;;;;;;;47.25;36.25;;;;;11.45;63.15;101803.53;5075918;28;46322;-75
2023/04/17 08:55:16;;;;;;;;;45.00;35.25;;;;;11.48;63.16;101799.00;5076108;28;45894;-75
2023/04/17 08:58:02;;;;;;;;;43.75;38.25;;;;;11.47;63.07;101792.03;5076189;28;45633;-79
2023/04/17 09:00:33;;;;;;;;;44.75;38.00;;;;;11.56;63.23;101801.16;5076015;28;46536;-75
2023/04/17 09:03:01;;;;;;;;;44.75;35.75;;;;;11.59;62.85;101801.00;5075955;28;46126;-76
2023/04/17 09:05:35;;;;;;;;;42.00;35.50;;;;;11.61;63.18;101802.59;5076401;28;45619;-77
2023/04/17 09:08:10;;;;;;;;;43.50;36.50;;;;;11.66;63.05;101803.19;5076005;28;45909;-79
2023/04/17 09:10:54;;;;;;;;;44.75;36.25;;;;;11.70;62.77;101804.72;5076040;28;45913;-76
2023/04/17 09:13:23;;;;;;;;;45.00;35.50;;;;;11.72;62.69;101794.97;5076071;28;46163;-74
2023/04/17 09:16:06;;;;;;;;;42.00;30.50;;;;;11.77;62.60;101803.47;5075672;28;45751;-76
2023/04/17 09:18:33;;;;;;;;;43.25;38.00;;;;;11.82;62.59;101805.00;5076036;28;45683;-74
2023/04/17 09:21:00;;;;;;;;;41.75;34.25;;;;;11.84;62.66;101795.25;5075728;28;46768;-75
2023/04/17 09:23:30;;;;;;;;;36.25;31.00;;;;;11.87;62.21;101793.31;5075769;28;46393;-73
2023/04/17 09:26:06;;;;;;;;;44.00;36.25;;;;;11.92;62.39;101799.13;5075491;28;45945;-78
2023/04/17 09:28:34;;;;;;;;;40.50;35.75;;;;;11.99;62.16;101789.09;5075999;28;45882;-75
2023/04/17 09:31:03;;;;;;;;;47.50;38.25;;;;;12.04;62.13;101808.91;5075345;28;45813;-75
2023/04/17 09:33:28;;;;;;;;;51.50;36.75;;;;;12.06;62.03;101800.94;5075770;28;46195;-77
2023/04/17 09:35:53;;;;;;;;;47.25;35.00;;;;;12.08;61.96;101810.44;5075278;28;46058;-77
2023/04/17 09:38:36;;;;;;;;;42.25;36.00;;;;;12.04;61.81;101798.41;5078185;28;45600;-77
2023/04/17 09:41:02;;;;;;;;;40.25;35.00;;;;;12.07;61.98;101803.50;5083138;28;45553;-75
2023/04/17 09:43:42;;;;;;;;;44.00;32.50;;;;;12.12;61.62;101803.22;5078517;28;46074;-74
2023/04/17 09:46:07;;;;;;;;;54.50;39.00;;;;;12.15;61.64;101805.66;5076658;28;46271;-75
2023/04/17 09:48:32;;;;;;;;;48.25;37.50;;;;;12.13;61.77;101803.16;5075008;28;45839;-77
2023/04/17 09:50:58;;;;;;;;;41.50;35.25;;;;;12.12;61.78;101797.97;5076094;28;45675;-76
2023/04/17 09:53:24;;;;;;;;;45.75;36.50;;;;;12.15;61.76;101796.00;5075676;28;45658;-77
2023/04/17 09:55:52;;;;;;;;;43.00;36.75;;;;;12.13;61.70;101802.28;5075639;28;45710;-74
2023/04/17 09:58:18;;;;;;;;;43.75;37.25;;;;;12.13;61.62;101797.88;5075912;28;45740;-79
2023/04/17 10:00:44;;;;;;;;;50.50;39.00;;;;;12.15;61.59;101785.50;5075211;28;45800;-77
2023/04/17 10:03:14;;;;;;;;;48.25;39.25;;;;;12.12;61.93;101790.94;5074032;28;46254;-77
2023/04/17 10:05:39;;;;;;;;;55.00;39.25;;;;;12.12;61.78;101804.06;5074969;28;45592;-79
2023/04/17 10:08:06;;;;;;;;;44.75;38.00;;;;;12.11;61.68;101802.38;5075103;28;45875;-75
2023/04/17 10:10:33;;;;;;;;;38.75;30.75;;;;;12.11;61.88;101801.53;5073275;28;47647;-76
2023/04/17 10:13:05;;;;;;;;;39.50;35.00;;;;;12.06;61.79;101808.84;5075021;28;46126;-75
2023/04/17 10:15:32;;;;;;;;;48.50;38.50;;;;;11.99;62.03;101805.72;5073468;28;45595;-75
2023/04/17 10:21:22;;;;;;;;;38.00;36.00;;;;;11.95;62.24;101806.81;5074560;28;45584;-79
2023/04/17 10:23:48;;;;;;;;;46.50;38.00;;;;;11.96;62.51;101800.66;5074780;28;46141;-78
2023/04/17 10:26:34;;;;;;;;;49.75;41.50;;;;;11.94;62.43;101804.28;5074484;28;45673;-80
2023/04/17 10:29:00;;;;;;;;;38.75;32.25;;;;;11.93;62.60;101800.00;5074447;28;45595;-78
2023/04/17 10:32:02;;;;;;;;;47.50;36.25;;;;;11.97;62.72;101796.25;5074484;28;46527;-79
2023/04/17 10:34:35;;;;;;;;;36.00;29.25;;;;;12.02;62.53;101797.66;5074615;28;46027;-76
2023/04/17 10:37:02;;;;;;;;;37.75;32.75;;;;;12.05;62.56;101784.34;5074591;28;46049;-78
2023/04/17 10:40:04;;;;;;;;;42.75;37.75;;;;;12.06;62.64;101801.81;5075019;28;45777;-78
2023/04/17 10:42:31;;;;;;;;;37.50;35.75;;;;;12.03;62.54;101793.25;5074434;28;45713;-77
2023/04/17 10:45:00;;;;;;;;;46.75;38.00;;;;;12.09;62.64;101790.28;5074498;28;45747;-77
2023/04/17 10:47:34;;;;;;;;;49.50;38.00;;;;;12.07;62.65;101779.84;5055754;28;45885;-76
2023/04/17 10:50:06;;;;;;;;;45.25;38.00;;;;;12.12;62.72;101776.94;5074362;28;45806;-78
2023/04/17 10:52:34;;;;;;;;;44.50;35.75;;;;;12.12;62.71;101788.31;5074332;28;46558;-80
2023/04/17 10:55:06;;;;;;;;;49.25;37.75;;;;;12.13;62.48;101781.28;5074343;28;46214;-78
2023/04/17 10:57:50;;;;;;;;;45.25;36.50;;;;;12.15;62.74;101771.50;5073959;28;45894;-79
2023/04/17 11:00:17;;;;;;;;;48.50;38.00;;;;;12.15;62.65;101780.22;5074633;28;45482;-77
2023/04/17 11:02:49;;;;;;;;;45.75;38.00;;;;;12.11;62.63;101788.38;5073624;28;45701;-78
2023/04/17 11:05:16;;;;;;;;;42.50;37.00;;;;;12.08;62.75;101778.94;5073742;28;46155;-78
2023/04/17 11:07:43;;;;;;;;;43.00;37.50;;;;;12.11;62.76;101777.88;5073695;28;45811;-77
2023/04/17 11:10:09;;;;;;;;;49.00;36.50;;;;;12.11;62.42;101778.72;5074284;28;45742;-79
2023/04/17 11:12:35;;;;;;;;;38.00;31.25;;;;;12.10;62.39;101791.94;5078324;28;46911;-78
2023/04/17 11:15:02;;;;;;;;;45.00;34.00;;;;;12.09;62.65;101774.53;5075572;28;46911;-77
2023/04/17 11:17:28;;;;;;;;;44.50;37.75;;;;;12.08;62.72;101772.81;5073445;28;45908;-79
2023/04/17 11:19:54;;;;;;;;;48.50;37.00;;;;;12.06;62.66;101770.28;5074066;28;45843;-77
2023/04/17 11:22:20;;;;;;;;;45.25;36.00;;;;;12.08;62.70;101771.03;5089291;27;47582;-79
2023/04/17 11:24:45;;;;;;;;;43.00;36.00;;;;;12.12;62.57;101762.03;5073952;28;46365;-77
2023/04/17 11:27:11;;;;;;;;;43.50;37.25;;;;;12.18;62.34;101753.81;5073641;28;45557;-77
2023/04/17 11:29:36;;;;;;;;;35.50;30.75;;;;;12.23;62.04;101761.41;5073929;28;45681;-79
2023/04/17 11:32:02;;;;;;;;;39.00;33.50;;;;;12.26;61.94;101758.56;5073474;28;45588;-77
2023/04/17 11:34:28;;;;;;;;;45.25;36.75;;;;;12.26;62.11;101755.94;5073777;28;46071;-76
2023/04/17 11:36:56;;;;;;;;;40.75;34.00;;;;;12.28;61.69;101754.09;5073543;28;45900;-75
2023/04/17 11:39:24;;;;;;;;;33.75;29.00;;;;;12.30;62.22;101754.00;5073723;28;45759;-74
2023/04/17 11:41:51;;;;;;;;;40.00;37.00;;;;;12.36;61.96;101757.09;5073331;28;46266;-77
2023/04/17 11:44:19;;;;;;;;;44.75;37.50;;;;;12.38;61.82;101755.22;5054972;28;46221;-77
2023/04/17 11:53:29;;;;;;;;;37.50;28.75;;;;;12.46;61.51;101758.25;5073134;28;45976;-73
2023/04/17 11:56:14;;;;;;;;;47.50;39.50;;;;;12.48;61.52;101755.50;5073182;28;45776;-77
2023/04/17 11:58:52;;;;;;;;;41.75;34.25;;;;;12.47;61.48;101759.91;5073381;28;45892;-78
2023/04/17 12:01:23;;;;;;;;;35.50;31.25;;;;;12.47;61.67;101769.63;5073377;28;45836;-76
2023/04/17 12:03:49;;;;;;;;;37.25;30.75;;;;;12.46;61.46;101760.03;5072619;28;45581;-76
2023/04/17 12:06:15;;;;;;;;;37.75;31.50;;;;;12.48;61.45;101768.66;5072895;28;45769;-74
2023/04/17 12:08:46;;;;;;;;;35.25;32.00;;;;;12.44;61.46;101777.66;5073071;28;46033;-78
2023/04/17 12:11:21;;;;;;;;;42.75;37.50;;;;;12.44;61.53;101761.91;5073344;28;45743;-77
2023/04/17 12:13:46;;;;;;;;;41.00;34.50;;;;;12.46;61.52;101763.50;5073203;28;46452;-76
2023/04/17 12:16:12;;;;;;;;;42.00;33.25;;;;;12.46;61.49;101763.50;5072722;28;45605;-80
2023/04/17 12:18:37;;;;;;;;;52.50;35.25;;;;;12.47;61.59;101764.34;5071384;28;45680;-76
2023/04/17 12:21:03;;;;;;;;;38.50;29.25;;;;;12.43;61.56;101778.59;5073098;28;45970;-78
2023/04/17 12:23:29;;;;;;;;;40.75;35.00;;;;;12.37;61.61;101774.56;5071620;28;47987;-78
2023/04/17 12:25:54;;;;;;;;;39.50;35.25;;;;;12.36;61.91;101764.16;5071998;28;45720;-78
2023/04/17 12:28:20;;;;;;;;;42.75;36.50;;;;;12.33;62.13;101775.69;5073202;28;45930;-79
2023/04/17 12:30:46;;;;;;;;;36.50;33.00;;;;;12.34;62.01;101769.50;5073127;28;45717;-77
2023/04/17 12:33:11;;;;;;;;;40.25;32.50;;;;;12.34;62.12;101768.66;5073028;28;45901;-79
2023/04/17 12:35:37;;;;;;;;;36.25;31.50;;;;;12.32;62.08;101752.97;5072555;28;45605;-76
2023/04/17 12:38:02;;;;;;;;;44.25;37.25;;;;;12.36;62.26;101761.53;5072942;28;45636;-77
2023/04/17 12:40:28;;;;;;;;;37.00;34.00;;;;;12.37;62.30;101766.66;5073029;28;45712;-77